sensor_id;sensor_type;location;lat;lon;timestamp;P1;durP1;ratioP1;P2;durP2;ratioP2
74245;SDS011;62601;51.044;13.788;2024-02-14T00:00:30;8.77;;;5.40;;
74245;SDS011;62601;51.044;13.788;2024-02-14T00:02:51;7.05;;;5.65;;
74245;SDS011;62601;51.044;13.788;2024-02-14T00:05:12;7.25;;;5.00;;
74245;SDS011;62601;51.044;13.788;2024-02-14T00:07:39;8.60;;;5.18;;
74245;SDS011;62601;51.044;13.788;2024-02-14T00:10:01;8.32;;;5.03;;
74245;SDS011;62601;51.044;13.788;2024-02-14T00:12:21;7.60;;;4.90;;
74245;SDS011;62601;51.044;13.788;2024-02-14T00:14:41;7.22;;;5.45;;
74245;SDS011;62601;51.044;13.788;2024-02-14T00:17:02;7.25;;;4.40;;
74245;SDS011;62601;51.044;13.788;2024-02-14T00:19:22;7.28;;;4.88;;
74245;SDS011;62601;51.044;13.788;2024-02-14T00:21:42;6.50;;;4.57;;
74245;SDS011;62601;51.044;13.788;2024-02-14T00:24:02;6.65;;;4.25;;
74245;SDS011;62601;51.044;13.788;2024-02-14T00:26:22;7.97;;;4.80;;
74245;SDS011;62601;51.044;13.788;2024-02-14T00:28:44;6.13;;;4.20;;
74245;SDS011;62601;51.044;13.788;2024-02-14T00:31:05;4.88;;;4.15;;
74245;SDS011;62601;51.044;13.788;2024-02-14T00:33:25;5.65;;;4.10;;
74245;SDS011;62601;51.044;13.788;2024-02-14T00:35:47;5.70;;;4.50;;
74245;SDS011;62601;51.044;13.788;2024-02-14T00:38:08;5.50;;;4.63;;
74245;SDS011;62601;51.044;13.788;2024-02-14T00:40:28;6.53;;;3.75;;
74245;SDS011;62601;51.044;13.788;2024-02-14T00:42:50;4.53;;;3.90;;
74245;SDS011;62601;51.044;13.788;2024-02-14T00:45:11;5.32;;;4.07;;
74245;SDS011;62601;51.044;13.788;2024-02-14T00:47:35;4.45;;;3.97;;
74245;SDS011;62601;51.044;13.788;2024-02-14T00:49:56;5.45;;;3.80;;
74245;SDS011;62601;51.044;13.788;2024-02-14T00:52:18;6.38;;;3.80;;
74245;SDS011;62601;51.044;13.788;2024-02-14T00:54:38;4.78;;;3.80;;
74245;SDS011;62601;51.044;13.788;2024-02-14T00:57:02;4.63;;;4.22;;
74245;SDS011;62601;51.044;13.788;2024-02-14T00:59:23;5.75;;;3.95;;
74245;SDS011;62601;51.044;13.788;2024-02-14T01:01:44;4.80;;;3.67;;
74245;SDS011;62601;51.044;13.788;2024-02-14T01:04:06;6.03;;;4.30;;
74245;SDS011;62601;51.044;13.788;2024-02-14T01:06:29;4.63;;;3.30;;
74245;SDS011;62601;51.044;13.788;2024-02-14T01:08:51;5.35;;;3.20;;
74245;SDS011;62601;51.044;13.788;2024-02-14T01:11:12;5.43;;;3.95;;
74245;SDS011;62601;51.044;13.788;2024-02-14T01:13:33;4.70;;;3.55;;
74245;SDS011;62601;51.044;13.788;2024-02-14T01:15:54;4.45;;;3.55;;
74245;SDS011;62601;51.044;13.788;2024-02-14T01:18:14;5.28;;;3.83;;
74245;SDS011;62601;51.044;13.788;2024-02-14T01:20:34;4.57;;;3.67;;
74245;SDS011;62601;51.044;13.788;2024-02-14T01:22:54;4.07;;;3.25;;
74245;SDS011;62601;51.044;13.788;2024-02-14T01:25:14;6.90;;;3.55;;
74245;SDS011;62601;51.044;13.788;2024-02-14T01:27:34;4.03;;;3.45;;
74245;SDS011;62601;51.044;13.788;2024-02-14T01:29:54;4.50;;;3.80;;
74245;SDS011;62601;51.044;13.788;2024-02-14T01:32:15;4.88;;;4.05;;
74245;SDS011;62601;51.044;13.788;2024-02-14T01:34:36;3.60;;;3.25;;
74245;SDS011;62601;51.044;13.788;2024-02-14T01:36:57;5.00;;;3.65;;
74245;SDS011;62601;51.044;13.788;2024-02-14T01:39:19;5.28;;;3.50;;
74245;SDS011;62601;51.044;13.788;2024-02-14T01:41:45;6.05;;;4.00;;
74245;SDS011;62601;51.044;13.788;2024-02-14T01:44:07;4.43;;;3.88;;
74245;SDS011;62601;51.044;13.788;2024-02-14T01:46:28;3.72;;;3.42;;
74245;SDS011;62601;51.044;13.788;2024-02-14T01:48:48;5.25;;;3.55;;
74245;SDS011;62601;51.044;13.788;2024-02-14T01:51:11;5.25;;;3.60;;
74245;SDS011;62601;51.044;13.788;2024-02-14T01:53:34;5.28;;;3.53;;
74245;SDS011;62601;51.044;13.788;2024-02-14T01:55:59;5.20;;;3.30;;
74245;SDS011;62601;51.044;13.788;2024-02-14T01:58:19;4.57;;;3.55;;
74245;SDS011;62601;51.044;13.788;2024-02-14T02:00:40;6.07;;;4.30;;
74245;SDS011;62601;51.044;13.788;2024-02-14T02:03:04;4.10;;;3.20;;
74245;SDS011;62601;51.044;13.788;2024-02-14T02:05:26;4.78;;;3.30;;
74245;SDS011;62601;51.044;13.788;2024-02-14T02:07:47;6.72;;;3.88;;
74245;SDS011;62601;51.044;13.788;2024-02-14T02:10:11;6.22;;;3.30;;
74245;SDS011;62601;51.044;13.788;2024-02-14T02:12:33;7.95;;;3.90;;
74245;SDS011;62601;51.044;13.788;2024-02-14T02:14:54;3.90;;;3.50;;
74245;SDS011;62601;51.044;13.788;2024-02-14T02:17:16;3.90;;;3.15;;
74245;SDS011;62601;51.044;13.788;2024-02-14T02:19:37;4.63;;;3.40;;
74245;SDS011;62601;51.044;13.788;2024-02-14T02:21:57;4.18;;;3.60;;
74245;SDS011;62601;51.044;13.788;2024-02-14T02:24:18;4.10;;;3.70;;
74245;SDS011;62601;51.044;13.788;2024-02-14T02:26:39;4.45;;;3.35;;
74245;SDS011;62601;51.044;13.788;2024-02-14T02:29:01;4.43;;;3.30;;
74245;SDS011;62601;51.044;13.788;2024-02-14T02:31:22;3.67;;;3.35;;
74245;SDS011;62601;51.044;13.788;2024-02-14T02:33:43;4.22;;;3.55;;
74245;SDS011;62601;51.044;13.788;2024-02-14T02:36:05;7.97;;;3.33;;
74245;SDS011;62601;51.044;13.788;2024-02-14T02:38:26;5.20;;;3.67;;
74245;SDS011;62601;51.044;13.788;2024-02-14T02:40:47;4.60;;;3.60;;
74245;SDS011;62601;51.044;13.788;2024-02-14T02:43:10;4.43;;;3.42;;
74245;SDS011;62601;51.044;13.788;2024-02-14T02:45:31;4.68;;;3.35;;
74245;SDS011;62601;51.044;13.788;2024-02-14T02:47:52;4.18;;;3.40;;
74245;SDS011;62601;51.044;13.788;2024-02-14T02:50:17;7.43;;;3.80;;
74245;SDS011;62601;51.044;13.788;2024-02-14T02:52:39;4.65;;;3.80;;
74245;SDS011;62601;51.044;13.788;2024-02-14T02:55:01;6.13;;;3.72;;
74245;SDS011;62601;51.044;13.788;2024-02-14T02:57:22;3.85;;;3.17;;
74245;SDS011;62601;51.044;13.788;2024-02-14T02:59:42;5.10;;;3.42;;
74245;SDS011;62601;51.044;13.788;2024-02-14T03:02:09;3.55;;;3.15;;
74245;SDS011;62601;51.044;13.788;2024-02-14T03:04:29;3.75;;;3.03;;
74245;SDS011;62601;51.044;13.788;2024-02-14T03:06:50;8.20;;;4.30;;
74245;SDS011;62601;51.044;13.788;2024-02-14T03:09:12;4.25;;;2.97;;
74245;SDS011;62601;51.044;13.788;2024-02-14T03:11:32;3.30;;;3.00;;
74245;SDS011;62601;51.044;13.788;2024-02-14T03:13:53;5.25;;;3.10;;
74245;SDS011;62601;51.044;13.788;2024-02-14T03:16:16;3.80;;;3.42;;
74245;SDS011;62601;51.044;13.788;2024-02-14T03:18:41;3.55;;;3.25;;
74245;SDS011;62601;51.044;13.788;2024-02-14T03:21:02;5.15;;;3.53;;
74245;SDS011;62601;51.044;13.788;2024-02-14T03:23:24;5.43;;;3.10;;
74245;SDS011;62601;51.044;13.788;2024-02-14T03:25:45;4.22;;;3.40;;
74245;SDS011;62601;51.044;13.788;2024-02-14T03:28:06;3.55;;;3.22;;
74245;SDS011;62601;51.044;13.788;2024-02-14T03:30:28;5.03;;;3.90;;
74245;SDS011;62601;51.044;13.788;2024-02-14T03:32:48;4.80;;;3.03;;
74245;SDS011;62601;51.044;13.788;2024-02-14T03:35:10;5.15;;;3.30;;
74245;SDS011;62601;51.044;13.788;2024-02-14T03:37:31;6.30;;;4.25;;
74245;SDS011;62601;51.044;13.788;2024-02-14T03:39:53;3.92;;;3.28;;
74245;SDS011;62601;51.044;13.788;2024-02-14T03:42:15;4.43;;;3.40;;
74245;SDS011;62601;51.044;13.788;2024-02-14T03:44:39;4.85;;;3.30;;
74245;SDS011;62601;51.044;13.788;2024-02-14T03:47:00;4.57;;;3.70;;
74245;SDS011;62601;51.044;13.788;2024-02-14T03:49:22;4.03;;;3.00;;
74245;SDS011;62601;51.044;13.788;2024-02-14T03:51:44;4.68;;;3.40;;
74245;SDS011;62601;51.044;13.788;2024-02-14T03:54:05;3.33;;;3.03;;
74245;SDS011;62601;51.044;13.788;2024-02-14T03:56:26;6.65;;;3.70;;
74245;SDS011;62601;51.044;13.788;2024-02-14T03:58:48;2.80;;;2.50;;
74245;SDS011;62601;51.044;13.788;2024-02-14T04:01:09;4.03;;;3.13;;
74245;SDS011;62601;51.044;13.788;2024-02-14T04:03:29;4.15;;;3.03;;
74245;SDS011;62601;51.044;13.788;2024-02-14T04:05:51;8.07;;;3.50;;
74245;SDS011;62601;51.044;13.788;2024-02-14T04:08:12;4.78;;;3.40;;
74245;SDS011;62601;51.044;13.788;2024-02-14T04:11:03;6.22;;;3.75;;
74245;SDS011;62601;51.044;13.788;2024-02-14T04:13:23;6.55;;;3.95;;
74245;SDS011;62601;51.044;13.788;2024-02-14T04:15:47;5.85;;;3.38;;
74245;SDS011;62601;51.044;13.788;2024-02-14T04:18:08;5.15;;;3.50;;
74245;SDS011;62601;51.044;13.788;2024-02-14T04:20:30;5.20;;;4.28;;
74245;SDS011;62601;51.044;13.788;2024-02-14T04:22:50;6.25;;;3.95;;
74245;SDS011;62601;51.044;13.788;2024-02-14T04:25:11;4.50;;;3.38;;
74245;SDS011;62601;51.044;13.788;2024-02-14T04:27:32;5.00;;;4.50;;
74245;SDS011;62601;51.044;13.788;2024-02-14T04:29:53;4.15;;;3.75;;
74245;SDS011;62601;51.044;13.788;2024-02-14T04:32:15;4.28;;;3.70;;
74245;SDS011;62601;51.044;13.788;2024-02-14T04:34:36;5.38;;;3.70;;
74245;SDS011;62601;51.044;13.788;2024-02-14T04:36:58;5.30;;;4.00;;
74245;SDS011;62601;51.044;13.788;2024-02-14T04:39:18;4.45;;;3.38;;
74245;SDS011;62601;51.044;13.788;2024-02-14T04:41:38;5.88;;;4.13;;
74245;SDS011;62601;51.044;13.788;2024-02-14T04:43:58;4.22;;;3.70;;
74245;SDS011;62601;51.044;13.788;2024-02-14T04:46:18;5.65;;;3.53;;
74245;SDS011;62601;51.044;13.788;2024-02-14T04:48:39;6.97;;;3.97;;
74245;SDS011;62601;51.044;13.788;2024-02-14T04:51:01;4.28;;;3.65;;
74245;SDS011;62601;51.044;13.788;2024-02-14T04:53:22;5.47;;;3.58;;
74245;SDS011;62601;51.044;13.788;2024-02-14T04:55:44;5.65;;;3.95;;
74245;SDS011;62601;51.044;13.788;2024-02-14T04:58:05;7.57;;;4.03;;
74245;SDS011;62601;51.044;13.788;2024-02-14T05:00:26;6.65;;;4.15;;
74245;SDS011;62601;51.044;13.788;2024-02-14T05:02:48;6.13;;;3.70;;
74245;SDS011;62601;51.044;13.788;2024-02-14T05:05:09;5.43;;;4.20;;
74245;SDS011;62601;51.044;13.788;2024-02-14T05:07:29;5.10;;;3.58;;
74245;SDS011;62601;51.044;13.788;2024-02-14T05:09:50;8.70;;;3.85;;
74245;SDS011;62601;51.044;13.788;2024-02-14T05:12:11;7.35;;;4.32;;
74245;SDS011;62601;51.044;13.788;2024-02-14T05:14:36;9.38;;;4.32;;
74245;SDS011;62601;51.044;13.788;2024-02-14T05:16:58;6.03;;;3.90;;
74245;SDS011;62601;51.044;13.788;2024-02-14T05:19:20;4.75;;;3.67;;
74245;SDS011;62601;51.044;13.788;2024-02-14T05:21:41;5.13;;;3.70;;
74245;SDS011;62601;51.044;13.788;2024-02-14T05:24:02;6.20;;;3.83;;
74245;SDS011;62601;51.044;13.788;2024-02-14T05:26:23;5.57;;;4.05;;
74245;SDS011;62601;51.044;13.788;2024-02-14T05:28:45;4.50;;;3.95;;
74245;SDS011;62601;51.044;13.788;2024-02-14T05:31:06;6.22;;;4.18;;
74245;SDS011;62601;51.044;13.788;2024-02-14T05:33:28;5.50;;;4.13;;
74245;SDS011;62601;51.044;13.788;2024-02-14T05:35:49;5.57;;;4.00;;
74245;SDS011;62601;51.044;13.788;2024-02-14T05:38:10;5.10;;;4.35;;
74245;SDS011;62601;51.044;13.788;2024-02-14T05:40:31;6.10;;;4.20;;
74245;SDS011;62601;51.044;13.788;2024-02-14T05:42:52;8.57;;;4.28;;
74245;SDS011;62601;51.044;13.788;2024-02-14T05:45:12;5.65;;;4.22;;
74245;SDS011;62601;51.044;13.788;2024-02-14T05:47:33;8.68;;;4.80;;
74245;SDS011;62601;51.044;13.788;2024-02-14T05:49:53;6.85;;;4.20;;
74245;SDS011;62601;51.044;13.788;2024-02-14T05:52:14;7.57;;;5.32;;
74245;SDS011;62601;51.044;13.788;2024-02-14T05:54:34;7.75;;;4.20;;
74245;SDS011;62601;51.044;13.788;2024-02-14T05:56:54;6.90;;;4.35;;
74245;SDS011;62601;51.044;13.788;2024-02-14T05:59:14;5.68;;;4.32;;
74245;SDS011;62601;51.044;13.788;2024-02-14T06:01:35;10.25;;;5.03;;
74245;SDS011;62601;51.044;13.788;2024-02-14T06:03:55;5.90;;;4.30;;
74245;SDS011;62601;51.044;13.788;2024-02-14T06:06:16;9.88;;;4.93;;
74245;SDS011;62601;51.044;13.788;2024-02-14T06:08:37;9.80;;;5.35;;
74245;SDS011;62601;51.044;13.788;2024-02-14T06:10:59;6.90;;;5.00;;
74245;SDS011;62601;51.044;13.788;2024-02-14T06:13:20;6.88;;;4.70;;
74245;SDS011;62601;51.044;13.788;2024-02-14T06:15:42;9.18;;;4.90;;
74245;SDS011;62601;51.044;13.788;2024-02-14T06:18:03;6.35;;;4.43;;
74245;SDS011;62601;51.044;13.788;2024-02-14T06:20:23;6.65;;;4.28;;
74245;SDS011;62601;51.044;13.788;2024-02-14T06:22:43;5.85;;;4.50;;
74245;SDS011;62601;51.044;13.788;2024-02-14T06:25:04;8.10;;;4.68;;
74245;SDS011;62601;51.044;13.788;2024-02-14T06:27:24;5.72;;;4.40;;
74245;SDS011;62601;51.044;13.788;2024-02-14T06:29:44;5.38;;;4.63;;
74245;SDS011;62601;51.044;13.788;2024-02-14T06:32:05;8.32;;;4.90;;
74245;SDS011;62601;51.044;13.788;2024-02-14T06:34:28;8.45;;;4.88;;
74245;SDS011;62601;51.044;13.788;2024-02-14T06:36:49;9.40;;;5.10;;
74245;SDS011;62601;51.044;13.788;2024-02-14T06:39:10;10.10;;;5.85;;
74245;SDS011;62601;51.044;13.788;2024-02-14T06:41:31;9.48;;;5.38;;
74245;SDS011;62601;51.044;13.788;2024-02-14T06:43:52;9.82;;;4.82;;
74245;SDS011;62601;51.044;13.788;2024-02-14T06:46:12;5.75;;;4.70;;
74245;SDS011;62601;51.044;13.788;2024-02-14T06:48:33;6.22;;;4.80;;
74245;SDS011;62601;51.044;13.788;2024-02-14T06:50:54;9.02;;;4.18;;
74245;SDS011;62601;51.044;13.788;2024-02-14T06:53:15;7.15;;;4.57;;
74245;SDS011;62601;51.044;13.788;2024-02-14T06:55:35;9.27;;;4.78;;
74245;SDS011;62601;51.044;13.788;2024-02-14T06:57:55;7.72;;;4.13;;
74245;SDS011;62601;51.044;13.788;2024-02-14T07:00:16;7.18;;;4.65;;
74245;SDS011;62601;51.044;13.788;2024-02-14T07:02:39;6.70;;;4.82;;
74245;SDS011;62601;51.044;13.788;2024-02-14T07:05:03;6.07;;;4.38;;
74245;SDS011;62601;51.044;13.788;2024-02-14T07:07:24;9.40;;;4.63;;
74245;SDS011;62601;51.044;13.788;2024-02-14T07:09:45;9.00;;;4.65;;
74245;SDS011;62601;51.044;13.788;2024-02-14T07:12:07;9.43;;;4.80;;
74245;SDS011;62601;51.044;13.788;2024-02-14T07:14:27;6.70;;;3.90;;
74245;SDS011;62601;51.044;13.788;2024-02-14T07:16:48;6.68;;;5.18;;
74245;SDS011;62601;51.044;13.788;2024-02-14T07:19:09;6.93;;;4.40;;
74245;SDS011;62601;51.044;13.788;2024-02-14T07:21:30;4.97;;;4.10;;
74245;SDS011;62601;51.044;13.788;2024-02-14T07:23:51;7.55;;;4.78;;
74245;SDS011;62601;51.044;13.788;2024-02-14T07:26:12;7.90;;;5.07;;
74245;SDS011;62601;51.044;13.788;2024-02-14T07:28:33;6.63;;;4.57;;
74245;SDS011;62601;51.044;13.788;2024-02-14T07:30:55;7.10;;;4.45;;
74245;SDS011;62601;51.044;13.788;2024-02-14T07:33:16;6.25;;;4.10;;
74245;SDS011;62601;51.044;13.788;2024-02-14T07:35:38;5.68;;;4.18;;
74245;SDS011;62601;51.044;13.788;2024-02-14T07:37:59;5.75;;;3.88;;
74245;SDS011;62601;51.044;13.788;2024-02-14T07:40:20;6.18;;;3.78;;
74245;SDS011;62601;51.044;13.788;2024-02-14T07:42:44;7.28;;;4.28;;
74245;SDS011;62601;51.044;13.788;2024-02-14T07:45:05;7.50;;;4.70;;
74245;SDS011;62601;51.044;13.788;2024-02-14T07:47:26;6.50;;;4.70;;
74245;SDS011;62601;51.044;13.788;2024-02-14T07:49:46;6.57;;;4.50;;
74245;SDS011;62601;51.044;13.788;2024-02-14T07:52:06;11.30;;;5.07;;
74245;SDS011;62601;51.044;13.788;2024-02-14T07:54:26;5.80;;;3.88;;
74245;SDS011;62601;51.044;13.788;2024-02-14T07:56:48;8.65;;;5.10;;
74245;SDS011;62601;51.044;13.788;2024-02-14T07:59:08;10.18;;;3.95;;
74245;SDS011;62601;51.044;13.788;2024-02-14T08:01:29;10.25;;;4.35;;
74245;SDS011;62601;51.044;13.788;2024-02-14T08:03:49;5.38;;;4.88;;
74245;SDS011;62601;51.044;13.788;2024-02-14T08:06:09;6.13;;;3.70;;
74245;SDS011;62601;51.044;13.788;2024-02-14T08:08:31;5.68;;;4.00;;
74245;SDS011;62601;51.044;13.788;2024-02-14T08:10:52;5.47;;;3.85;;
74245;SDS011;62601;51.044;13.788;2024-02-14T08:13:13;7.78;;;3.88;;
74245;SDS011;62601;51.044;13.788;2024-02-14T08:15:33;7.47;;;4.22;;
74245;SDS011;62601;51.044;13.788;2024-02-14T08:17:53;8.95;;;3.78;;
74245;SDS011;62601;51.044;13.788;2024-02-14T08:20:13;4.53;;;3.75;;
74245;SDS011;62601;51.044;13.788;2024-02-14T08:22:33;5.90;;;3.75;;
74245;SDS011;62601;51.044;13.788;2024-02-14T08:24:53;6.05;;;3.50;;
74245;SDS011;62601;51.044;13.788;2024-02-14T08:27:13;6.28;;;4.93;;
74245;SDS011;62601;51.044;13.788;2024-02-14T08:29:34;6.75;;;5.13;;
74245;SDS011;62601;51.044;13.788;2024-02-14T08:31:54;5.88;;;4.35;;
74245;SDS011;62601;51.044;13.788;2024-02-14T08:34:15;8.10;;;3.80;;
74245;SDS011;62601;51.044;13.788;2024-02-14T08:36:35;4.65;;;3.63;;
74245;SDS011;62601;51.044;13.788;2024-02-14T08:38:56;6.13;;;3.80;;
74245;SDS011;62601;51.044;13.788;2024-02-14T08:41:16;5.95;;;3.80;;
74245;SDS011;62601;51.044;13.788;2024-02-14T08:43:38;8.48;;;4.00;;
74245;SDS011;62601;51.044;13.788;2024-02-14T08:45:58;6.32;;;3.80;;
74245;SDS011;62601;51.044;13.788;2024-02-14T08:48:18;7.10;;;3.95;;
74245;SDS011;62601;51.044;13.788;2024-02-14T08:50:38;5.15;;;3.42;;
74245;SDS011;62601;51.044;13.788;2024-02-14T08:52:58;9.85;;;3.72;;
74245;SDS011;62601;51.044;13.788;2024-02-14T08:55:18;3.97;;;3.45;;
74245;SDS011;62601;51.044;13.788;2024-02-14T08:57:38;6.82;;;3.85;;
74245;SDS011;62601;51.044;13.788;2024-02-14T09:00:00;8.63;;;3.65;;
74245;SDS011;62601;51.044;13.788;2024-02-14T09:02:21;5.22;;;3.08;;
74245;SDS011;62601;51.044;13.788;2024-02-14T09:04:42;4.68;;;3.72;;
74245;SDS011;62601;51.044;13.788;2024-02-14T09:07:03;5.55;;;4.00;;
74245;SDS011;62601;51.044;13.788;2024-02-14T09:09:24;5.05;;;3.92;;
74245;SDS011;62601;51.044;13.788;2024-02-14T09:11:45;11.63;;;4.07;;
74245;SDS011;62601;51.044;13.788;2024-02-14T09:14:07;5.25;;;3.88;;
74245;SDS011;62601;51.044;13.788;2024-02-14T09:16:27;4.35;;;3.60;;
74245;SDS011;62601;51.044;13.788;2024-02-14T09:18:49;6.88;;;3.60;;
74245;SDS011;62601;51.044;13.788;2024-02-14T09:21:10;10.23;;;3.35;;
74245;SDS011;62601;51.044;13.788;2024-02-14T09:23:31;7.10;;;4.00;;
74245;SDS011;62601;51.044;13.788;2024-02-14T09:25:53;6.00;;;3.50;;
74245;SDS011;62601;51.044;13.788;2024-02-14T09:28:17;6.80;;;3.53;;
74245;SDS011;62601;51.044;13.788;2024-02-14T09:30:37;6.32;;;3.78;;
74245;SDS011;62601;51.044;13.788;2024-02-14T09:32:58;5.50;;;3.45;;
74245;SDS011;62601;51.044;13.788;2024-02-14T09:35:19;6.32;;;4.00;;
74245;SDS011;62601;51.044;13.788;2024-02-14T09:37:40;5.88;;;3.90;;
74245;SDS011;62601;51.044;13.788;2024-02-14T09:40:01;7.38;;;3.30;;
74245;SDS011;62601;51.044;13.788;2024-02-14T09:42:24;6.68;;;4.22;;
74245;SDS011;62601;51.044;13.788;2024-02-14T09:44:47;8.00;;;4.95;;
74245;SDS011;62601;51.044;13.788;2024-02-14T09:47:09;7.05;;;4.18;;
74245;SDS011;62601;51.044;13.788;2024-02-14T09:49:31;4.80;;;4.28;;
74245;SDS011;62601;51.044;13.788;2024-02-14T09:51:54;5.10;;;4.40;;
74245;SDS011;62601;51.044;13.788;2024-02-14T09:54:16;5.97;;;3.80;;
74245;SDS011;62601;51.044;13.788;2024-02-14T09:56:38;5.05;;;3.45;;
74245;SDS011;62601;51.044;13.788;2024-02-14T09:58:59;5.43;;;3.50;;
74245;SDS011;62601;51.044;13.788;2024-02-14T10:01:22;9.25;;;3.95;;
74245;SDS011;62601;51.044;13.788;2024-02-14T10:03:42;5.45;;;3.50;;
74245;SDS011;62601;51.044;13.788;2024-02-14T10:06:04;5.75;;;3.42;;
74245;SDS011;62601;51.044;13.788;2024-02-14T10:08:26;5.20;;;3.88;;
74245;SDS011;62601;51.044;13.788;2024-02-14T10:10:46;7.07;;;3.92;;
74245;SDS011;62601;51.044;13.788;2024-02-14T10:13:08;4.90;;;3.45;;
74245;SDS011;62601;51.044;13.788;2024-02-14T10:15:29;4.78;;;3.35;;
74245;SDS011;62601;51.044;13.788;2024-02-14T10:17:51;5.97;;;3.75;;
74245;SDS011;62601;51.044;13.788;2024-02-14T10:20:16;5.63;;;3.70;;
74245;SDS011;62601;51.044;13.788;2024-02-14T10:22:46;5.18;;;3.58;;
74245;SDS011;62601;51.044;13.788;2024-02-14T10:25:07;4.50;;;3.50;;
74245;SDS011;62601;51.044;13.788;2024-02-14T10:27:27;5.53;;;3.25;;
74245;SDS011;62601;51.044;13.788;2024-02-14T10:29:47;4.35;;;3.88;;
74245;SDS011;62601;51.044;13.788;2024-02-14T10:32:08;5.15;;;3.92;;
74245;SDS011;62601;51.044;13.788;2024-02-14T10:34:33;7.57;;;3.95;;
74245;SDS011;62601;51.044;13.788;2024-02-14T10:36:53;6.70;;;3.78;;
74245;SDS011;62601;51.044;13.788;2024-02-14T10:39:15;7.38;;;4.15;;
74245;SDS011;62601;51.044;13.788;2024-02-14T10:41:38;6.30;;;4.53;;
74245;SDS011;62601;51.044;13.788;2024-02-14T10:43:59;4.97;;;3.90;;
74245;SDS011;62601;51.044;13.788;2024-02-14T10:46:20;8.15;;;4.63;;
74245;SDS011;62601;51.044;13.788;2024-02-14T10:48:42;9.55;;;5.40;;
74245;SDS011;62601;51.044;13.788;2024-02-14T10:51:02;8.75;;;5.07;;
74245;SDS011;62601;51.044;13.788;2024-02-14T10:53:25;12.82;;;5.95;;
74245;SDS011;62601;51.044;13.788;2024-02-14T10:55:49;6.82;;;5.50;;
74245;SDS011;62601;51.044;13.788;2024-02-14T10:58:11;7.85;;;4.75;;
74245;SDS011;62601;51.044;13.788;2024-02-14T11:00:33;6.70;;;4.50;;
74245;SDS011;62601;51.044;13.788;2024-02-14T11:02:53;5.80;;;4.53;;
74245;SDS011;62601;51.044;13.788;2024-02-14T11:05:14;6.15;;;4.10;;
74245;SDS011;62601;51.044;13.788;2024-02-14T11:07:35;6.40;;;4.50;;
74245;SDS011;62601;51.044;13.788;2024-02-14T11:10:04;6.97;;;4.55;;
74245;SDS011;62601;51.044;13.788;2024-02-14T11:12:26;5.00;;;4.18;;
74245;SDS011;62601;51.044;13.788;2024-02-14T11:14:47;6.45;;;5.35;;
74245;SDS011;62601;51.044;13.788;2024-02-14T11:17:11;7.60;;;5.10;;
74245;SDS011;62601;51.044;13.788;2024-02-14T11:19:32;6.80;;;4.97;;
74245;SDS011;62601;51.044;13.788;2024-02-14T11:21:54;7.25;;;4.60;;
74245;SDS011;62601;51.044;13.788;2024-02-14T11:24:19;8.18;;;4.85;;
74245;SDS011;62601;51.044;13.788;2024-02-14T11:26:54;8.95;;;5.97;;
74245;SDS011;62601;51.044;13.788;2024-02-14T11:29:16;6.68;;;5.63;;
74245;SDS011;62601;51.044;13.788;2024-02-14T11:31:37;5.95;;;5.28;;
74245;SDS011;62601;51.044;13.788;2024-02-14T11:34:02;13.10;;;4.68;;
74245;SDS011;62601;51.044;13.788;2024-02-14T11:36:24;6.30;;;5.13;;
74245;SDS011;62601;51.044;13.788;2024-02-14T11:38:45;11.45;;;4.93;;
74245;SDS011;62601;51.044;13.788;2024-02-14T11:41:07;7.90;;;4.50;;
74245;SDS011;62601;51.044;13.788;2024-02-14T11:43:27;7.80;;;4.63;;
74245;SDS011;62601;51.044;13.788;2024-02-14T11:45:48;6.13;;;4.43;;
74245;SDS011;62601;51.044;13.788;2024-02-14T11:48:13;7.82;;;4.30;;
74245;SDS011;62601;51.044;13.788;2024-02-14T11:50:39;6.32;;;4.32;;
74245;SDS011;62601;51.044;13.788;2024-02-14T11:53:00;11.60;;;5.28;;
74245;SDS011;62601;51.044;13.788;2024-02-14T11:55:27;6.38;;;3.90;;
74245;SDS011;62601;51.044;13.788;2024-02-14T11:57:48;7.63;;;4.63;;
74245;SDS011;62601;51.044;13.788;2024-02-14T12:00:15;10.13;;;5.50;;
74245;SDS011;62601;51.044;13.788;2024-02-14T12:02:37;7.82;;;4.65;;
74245;SDS011;62601;51.044;13.788;2024-02-14T12:04:57;7.10;;;4.40;;
74245;SDS011;62601;51.044;13.788;2024-02-14T12:07:19;6.40;;;4.82;;
74245;SDS011;62601;51.044;13.788;2024-02-14T12:09:43;9.38;;;6.15;;
74245;SDS011;62601;51.044;13.788;2024-02-14T12:12:06;6.75;;;4.45;;
74245;SDS011;62601;51.044;13.788;2024-02-14T12:14:26;6.50;;;4.50;;
74245;SDS011;62601;51.044;13.788;2024-02-14T12:16:47;5.10;;;3.95;;
74245;SDS011;62601;51.044;13.788;2024-02-14T12:19:09;6.68;;;3.60;;
74245;SDS011;62601;51.044;13.788;2024-02-14T12:21:38;5.75;;;4.50;;
74245;SDS011;62601;51.044;13.788;2024-02-14T12:24:00;6.18;;;4.68;;
74245;SDS011;62601;51.044;13.788;2024-02-14T12:26:22;4.88;;;4.10;;
74245;SDS011;62601;51.044;13.788;2024-02-14T12:28:45;5.07;;;3.85;;
74245;SDS011;62601;51.044;13.788;2024-02-14T12:31:08;4.68;;;3.38;;
74245;SDS011;62601;51.044;13.788;2024-02-14T12:33:28;8.05;;;3.13;;
74245;SDS011;62601;51.044;13.788;2024-02-14T12:35:49;5.03;;;3.13;;
74245;SDS011;62601;51.044;13.788;2024-02-14T12:38:11;7.00;;;3.28;;
74245;SDS011;62601;51.044;13.788;2024-02-14T12:40:31;2.40;;;2.20;;
74245;SDS011;62601;51.044;13.788;2024-02-14T12:42:55;4.57;;;2.00;;
74245;SDS011;62601;51.044;13.788;2024-02-14T12:45:17;3.72;;;2.10;;
74245;SDS011;62601;51.044;13.788;2024-02-14T12:47:38;5.38;;;3.55;;
74245;SDS011;62601;51.044;13.788;2024-02-14T12:49:58;4.30;;;3.80;;
74245;SDS011;62601;51.044;13.788;2024-02-14T12:52:19;6.30;;;4.25;;
74245;SDS011;62601;51.044;13.788;2024-02-14T12:54:39;6.00;;;4.50;;
74245;SDS011;62601;51.044;13.788;2024-02-14T12:56:59;3.70;;;2.58;;
74245;SDS011;62601;51.044;13.788;2024-02-14T12:59:21;3.72;;;2.65;;
74245;SDS011;62601;51.044;13.788;2024-02-14T13:01:42;3.33;;;3.00;;
74245;SDS011;62601;51.044;13.788;2024-02-14T13:04:03;3.58;;;3.05;;
74245;SDS011;62601;51.044;13.788;2024-02-14T13:06:25;6.35;;;3.78;;
74245;SDS011;62601;51.044;13.788;2024-02-14T13:09:06;4.95;;;3.20;;
74245;SDS011;62601;51.044;13.788;2024-02-14T13:11:28;4.20;;;3.35;;
74245;SDS011;62601;51.044;13.788;2024-02-14T13:13:49;6.45;;;3.50;;
74245;SDS011;62601;51.044;13.788;2024-02-14T13:16:16;4.15;;;3.00;;
74245;SDS011;62601;51.044;13.788;2024-02-14T13:18:37;5.63;;;2.58;;
74245;SDS011;62601;51.044;13.788;2024-02-14T13:20:58;3.90;;;2.60;;
74245;SDS011;62601;51.044;13.788;2024-02-14T13:23:20;2.70;;;2.00;;
74245;SDS011;62601;51.044;13.788;2024-02-14T13:25:40;2.60;;;2.30;;
74245;SDS011;62601;51.044;13.788;2024-02-14T13:28:04;2.13;;;1.40;;
74245;SDS011;62601;51.044;13.788;2024-02-14T13:30:24;1.75;;;1.20;;
74245;SDS011;62601;51.044;13.788;2024-02-14T13:32:46;1.20;;;1.10;;
74245;SDS011;62601;51.044;13.788;2024-02-14T13:35:10;2.65;;;1.40;;
74245;SDS011;62601;51.044;13.788;2024-02-14T13:37:31;3.15;;;2.55;;
74245;SDS011;62601;51.044;13.788;2024-02-14T13:39:56;5.38;;;3.47;;
74245;SDS011;62601;51.044;13.788;2024-02-14T13:42:16;9.35;;;4.22;;
74245;SDS011;62601;51.044;13.788;2024-02-14T13:44:37;5.32;;;3.78;;
74245;SDS011;62601;51.044;13.788;2024-02-14T13:46:59;5.13;;;3.75;;
74245;SDS011;62601;51.044;13.788;2024-02-14T13:49:20;3.47;;;1.45;;
74245;SDS011;62601;51.044;13.788;2024-02-14T13:51:40;1.10;;;1.00;;
74245;SDS011;62601;51.044;13.788;2024-02-14T13:54:01;1.75;;;1.58;;
74245;SDS011;62601;51.044;13.788;2024-02-14T13:56:26;1.52;;;1.20;;
74245;SDS011;62601;51.044;13.788;2024-02-14T13:58:46;2.05;;;1.35;;